Accueil
METAR-TAF:

METAR-TAF

Aéroports :

Aéroport international de Nouméa - La Tontouta

Nouméa / La Tontouta, Nouvelle-Calédonie

latitude: 22-01S, longitude: 166-13E, altitude: 16 m

Observation

Le bulletin a été fait il y a 37 minutes, à 01:30 UTC
Vent 2 kt de direction variable
Température 24°C
Humidité 61%
Pression 1015 hPa
Visibilité 10 km ou plus

METAR: NWWW 230130Z AUTO VRB02KT 9999 ///TCU 24/16 Q1015 TEMPO RA BECMG FEW040 BKN140

Heure: 13:07 (02:07 UTC)

Prévision

Le bulletin a été fait il y a 3 heures et 7 minutes, à 23:00 UTC
Prévision valable du 23 à 00 UTC au 23 à 24 UTC
Vent 7 kt de nord-est
Visibilité 10 km ou plus
Quelques nuages à une hauteur de 4000 ft
Nuages fragmentés à une hauteur de 14000 ft
Temporairement
du 23 à 02 UTC au 23 à 16 UTC
pluie,

TAF: NWWW 222300Z 2300/2324 04007KT 9999 FEW040 BKN140 TEMPO 2302/2316 RA

Observations et prévisions météorologiques de plus de 4000 aéroports (messages METAR et TAF).

Les stations disponibles sont représentées par des disques jaunes et rouges sur la carte.

Passer la souris dessus pour voir le nom de la station.

Cliquer dessus pour voir les observations et prévisions météorologiques.

Pour changer de carte: cliquez sur les boutons verts avec une croix noire pour zoomer, sur le bouton vert avec un tiret pour effectuer un zoom arrière, ou sur les flèches vertes pour les cartes adjacentes.


METAR-TAF: